Time;durP1;ratioP1;P1;durP2;ratioP2;P2;SDS_P1;SDS_P2;PMS_P1;PMS_P2;Temp;Humidity;BMP_temperature;BMP_pressure;BME280_temperature;BME280_humidity;BME280_pressure;Samples;Min_cycle;Max_cycle;Signal;HPM_P1;HPM_P2
2022/01/16 00:00:17;;;;;;;;;;;19.50;39.70;;;;;;5114317;27;19965;-51
2022/01/16 00:05:29;;;;;;;;;;;19.50;39.60;;;;;;5107168;27;19924;-49
2022/01/16 00:07:56;;;;;;;;;;;19.50;39.60;;;;;;5147999;27;19923;-49
2022/01/16 00:10:24;;;;;;;;;;;19.50;39.50;;;;;;5110631;27;20077;-48
2022/01/16 00:12:52;;;;;;;;;;;19.50;39.50;;;;;;5129542;27;19961;-44
2022/01/16 00:15:21;;;;;;;;;;;19.50;39.50;;;;;;5113427;27;19923;-49
2022/01/16 00:17:54;;;;;;;;;;;19.50;39.50;;;;;;5114053;27;20380;-44
2022/01/16 00:20:21;;;;;;;;;;;19.50;39.40;;;;;;5113507;27;20501;-48
2022/01/16 00:22:49;;;;;;;;;;;19.50;39.50;;;;;;5131930;27;19958;-45
2022/01/16 00:25:16;;;;;;;;;;;19.50;39.50;;;;;;5111458;27;20330;-46
2022/01/16 00:27:42;;;;;;;;;;;19.50;39.40;;;;;;5137045;27;19928;-46
2022/01/16 00:30:09;;;;;;;;;;;19.50;39.40;;;;;;5114110;27;19980;-51
2022/01/16 00:32:37;;;;;;;;;;;19.50;39.40;;;;;;5105138;27;19934;-51
2022/01/16 00:35:05;;;;;;;;;;;19.50;39.50;;;;;;5111989;27;20391;-47
2022/01/16 00:37:31;;;;;;;;;;;19.50;39.40;;;;;;5130913;27;19927;-45
2022/01/16 00:39:58;;;;;;;;;;;19.50;39.40;;;;;;5108608;27;19923;-45
2022/01/16 00:42:25;;;;;;;;;;;19.50;39.40;;;;;;5112349;27;19927;-46
2022/01/16 00:44:52;;;;;;;;;;;19.50;39.30;;;;;;5107039;27;20422;-51
2022/01/16 00:47:19;;;;;;;;;;;19.50;39.30;;;;;;5122661;27;19923;-47
2022/01/16 00:49:47;;;;;;;;;;;19.50;39.30;;;;;;5131041;27;20077;-48
2022/01/16 00:52:14;;;;;;;;;;;19.50;39.30;;;;;;5114002;27;19965;-47
2022/01/16 00:54:41;;;;;;;;;;;19.50;39.30;;;;;;5111188;27;19927;-49
2022/01/16 00:57:07;;;;;;;;;;;19.50;39.20;;;;;;5112721;27;20209;-49
2022/01/16 00:59:34;;;;;;;;;;;19.50;39.20;;;;;;5108205;27;19955;-50
2022/01/16 01:02:01;;;;;;;;;;;19.50;39.20;;;;;;5131276;27;19955;-45
2022/01/16 01:04:28;;;;;;;;;;;19.50;39.20;;;;;;5130468;27;19977;-48
2022/01/16 01:06:56;;;;;;;;;;;19.50;39.20;;;;;;5112324;27;19923;-45
2022/01/16 01:09:24;;;;;;;;;;;19.50;39.20;;;;;;5107616;27;19976;-47
2022/01/16 01:11:50;;;;;;;;;;;19.50;39.20;;;;;;5111426;27;19924;-49
2022/01/16 01:14:24;;;;;;;;;;;19.50;39.20;;;;;;5112788;27;19923;-44
2022/01/16 01:16:53;;;;;;;;;;;19.50;39.20;;;;;;5112768;27;19927;-45
2022/01/16 01:19:21;;;;;;;;;;;19.50;39.20;;;;;;5111683;27;19923;-47
2022/01/16 01:21:48;;;;;;;;;;;19.50;39.20;;;;;;5112330;27;19968;-45
2022/01/16 01:24:16;;;;;;;;;;;19.50;39.10;;;;;;5108382;28;20034;-46
2022/01/16 01:26:52;;;;;;;;;;;19.50;39.10;;;;;;5130820;27;20580;-46
2022/01/16 01:29:20;;;;;;;;;;;19.50;39.00;;;;;;5109007;27;19923;-48
2022/01/16 01:31:47;;;;;;;;;;;19.50;39.00;;;;;;5128639;27;19931;-47
2022/01/16 01:34:14;;;;;;;;;;;19.50;39.00;;;;;;5130557;27;19934;-48
2022/01/16 01:36:41;;;;;;;;;;;19.50;39.00;;;;;;5112040;27;19988;-48
2022/01/16 01:39:08;;;;;;;;;;;19.50;38.90;;;;;;5110614;27;20437;-52
2022/01/16 01:41:36;;;;;;;;;;;19.50;38.90;;;;;;5129555;27;19924;-51
2022/01/16 01:52:16;;;;;;;;;;;19.40;38.60;;;;;;5111038;27;19924;-47
2022/01/16 01:54:44;;;;;;;;;;;19.40;38.50;;;;;;5138297;27;21303;-45
2022/01/16 01:57:12;;;;;;;;;;;19.50;38.60;;;;;;5110959;27;19930;-51
2022/01/16 01:59:39;;;;;;;;;;;19.40;38.50;;;;;;5106884;27;20346;-47
2022/01/16 02:02:06;;;;;;;;;;;19.40;38.50;;;;;;5120969;27;19973;-46
2022/01/16 02:04:33;;;;;;;;;;;19.40;38.40;;;;;;5125016;27;20036;-46
2022/01/16 02:07:00;;;;;;;;;;;19.40;38.40;;;;;;5110139;27;20314;-45
2022/01/16 02:09:27;;;;;;;;;;;19.40;38.40;;;;;;5111082;27;19928;-51
2022/01/16 02:11:54;;;;;;;;;;;19.40;38.30;;;;;;5092178;28;19927;-46
2022/01/16 02:14:28;;;;;;;;;;;19.40;38.30;;;;;;5128379;27;19980;-46
2022/01/16 02:28:03;;;;;;;;;;;19.40;38.30;;;;;;5110492;27;19931;-49
2022/01/16 02:30:58;;;;;;;;;;;19.40;38.30;;;;;;5108466;27;20382;-46
2022/01/16 02:34:30;;;;;;;;;;;19.40;38.30;;;;;;5130965;27;19928;-49
2022/01/16 02:36:22;;;;;;;;;;;19.40;38.30;;;;;;5110998;27;19924;-47
2022/01/16 02:38:50;;;;;;;;;;;19.40;38.30;;;;;;5111537;27;20272;-52
2022/01/16 02:41:17;;;;;;;;;;;19.40;38.30;;;;;;5109612;27;19966;-48
2022/01/16 02:43:48;;;;;;;;;;;19.40;38.30;;;;;;5111124;27;19945;-47
2022/01/16 02:48:59;;;;;;;;;;;19.40;39.00;;;;;;5107138;27;19930;-47
2022/01/16 02:51:27;;;;;;;;;;;19.40;38.30;;;;;;5120856;27;19949;-46
2022/01/16 02:53:55;;;;;;;;;;;19.40;38.30;;;;;;5124490;27;19923;-50
2022/01/16 02:56:22;;;;;;;;;;;19.40;38.30;;;;;;5109618;27;19946;-46
2022/01/16 02:58:49;;;;;;;;;;;19.40;38.30;;;;;;5110351;27;20467;-45
2022/01/16 03:01:16;;;;;;;;;;;19.40;38.30;;;;;;5107827;27;19957;-44
2022/01/16 03:03:43;;;;;;;;;;;19.40;38.30;;;;;;5109701;27;20414;-47
2022/01/16 03:06:10;;;;;;;;;;;19.40;38.30;;;;;;5139475;27;19927;-51
2022/01/16 03:08:36;;;;;;;;;;;19.40;38.30;;;;;;5110617;28;19935;-49
2022/01/16 03:11:23;;;;;;;;;;;19.40;38.30;;;;;;5109401;28;20030;-47
2022/01/16 03:13:50;;;;;;;;;;;19.40;38.20;;;;;;5109435;28;19966;-47
2022/01/16 03:16:17;;;;;;;;;;;19.40;38.10;;;;;;5110655;28;19955;-47
2022/01/16 03:24:12;;;;;;;;;;;19.40;38.10;;;;;;5107008;28;19927;-51
2022/01/16 03:26:40;;;;;;;;;;;19.40;38.10;;;;;;5129031;28;19990;-50
2022/01/16 03:29:07;;;;;;;;;;;19.40;38.00;;;;;;5110168;28;19923;-48
2022/01/16 03:31:33;;;;;;;;;;;19.40;38.00;;;;;;5101144;28;19934;-44
2022/01/16 03:34:00;;;;;;;;;;;19.40;37.90;;;;;;5111197;28;19972;-46
2022/01/16 03:36:27;;;;;;;;;;;19.40;37.90;;;;;;5105993;28;19975;-45
2022/01/16 03:38:54;;;;;;;;;;;19.40;37.80;;;;;;5111114;28;19928;-46
2022/01/16 03:41:20;;;;;;;;;;;19.40;37.80;;;;;;5128921;28;19976;-49
2022/01/16 03:43:49;;;;;;;;;;;19.40;37.80;;;;;;5129117;28;19925;-44
2022/01/16 03:46:15;;;;;;;;;;;19.40;37.70;;;;;;5125866;28;20013;-46
2022/01/16 03:48:42;;;;;;;;;;;19.40;37.70;;;;;;5109439;28;19962;-49
2022/01/16 03:51:09;;;;;;;;;;;19.40;37.60;;;;;;5126232;28;19934;-47
2022/01/16 03:53:36;;;;;;;;;;;19.30;37.30;;;;;;5106642;28;19927;-49
2022/01/16 03:56:03;;;;;;;;;;;19.30;37.30;;;;;;5137850;27;20430;-47
2022/01/16 03:58:29;;;;;;;;;;;19.30;37.20;;;;;;5127991;28;20021;-48
2022/01/16 04:00:58;;;;;;;;;;;19.30;37.20;;;;;;5108705;28;19931;-45
2022/01/16 04:03:25;;;;;;;;;;;19.30;37.10;;;;;;5118518;28;20382;-47
2022/01/16 04:05:51;;;;;;;;;;;19.30;37.10;;;;;;5125925;28;19981;-46
2022/01/16 04:08:18;;;;;;;;;;;19.30;37.00;;;;;;5127974;28;19930;-51
2022/01/16 04:10:45;;;;;;;;;;;19.30;37.00;;;;;;5109130;28;19924;-49
2022/01/16 04:13:12;;;;;;;;;;;19.30;37.00;;;;;;5108614;27;19927;-45
2022/01/16 04:15:39;;;;;;;;;;;19.20;37.50;;;;;;5113654;27;19955;-47
2022/01/16 04:18:07;;;;;;;;;;;19.20;36.90;;;;;;5111531;27;19930;-46
2022/01/16 04:20:35;;;;;;;;;;;19.30;37.00;;;;;;5112769;27;19935;-51
2022/01/16 04:23:02;;;;;;;;;;;19.20;36.80;;;;;;5112466;27;19924;-47
2022/01/16 04:25:29;;;;;;;;;;;19.20;36.70;;;;;;5110944;27;19947;-48
2022/01/16 04:27:56;;;;;;;;;;;19.20;36.60;;;;;;5104621;28;19927;-50
2022/01/16 04:30:22;;;;;;;;;;;19.20;36.50;;;;;;5099860;27;19969;-47
2022/01/16 04:32:49;;;;;;;;;;;19.20;36.40;;;;;;5111086;27;19930;-46
2022/01/16 04:35:18;;;;;;;;;;;19.20;36.40;;;;;;5112422;27;19926;-50
2022/01/16 04:37:45;;;;;;;;;;;19.20;36.40;;;;;;5115131;27;19924;-46
2022/01/16 04:40:12;;;;;;;;;;;19.20;36.40;;;;;;5112611;27;20018;-47
2022/01/16 04:45:24;;;;;;;;;;;19.10;36.30;;;;;;5118217;27;19931;-46
2022/01/16 04:47:52;;;;;;;;;;;19.10;36.20;;;;;;5145276;27;20018;-45
2022/01/16 04:50:24;;;;;;;;;;;19.10;36.10;;;;;;5131446;27;19924;-48
2022/01/16 04:52:51;;;;;;;;;;;19.10;36.10;;;;;;5112763;27;19976;-46
2022/01/16 04:55:18;;;;;;;;;;;19.10;36.10;;;;;;5112847;27;19963;-49
2022/01/16 04:57:45;;;;;;;;;;;19.10;36.20;;;;;;5108475;27;20522;-46
2022/01/16 05:00:12;;;;;;;;;;;19.10;36.30;;;;;;5112271;27;19979;-49
2022/01/16 05:02:40;;;;;;;;;;;19.10;36.30;;;;;;5112838;27;19929;-47
2022/01/16 05:05:07;;;;;;;;;;;19.10;36.10;;;;;;5106694;27;20018;-49
2022/01/16 05:07:36;;;;;;;;;;;19.00;36.00;;;;;;5111407;27;19931;-44
2022/01/16 05:10:03;;;;;;;;;;;19.10;36.00;;;;;;5117158;27;19935;-45
2022/01/16 05:12:34;;;;;;;;;;;19.00;35.80;;;;;;5112160;27;19966;-49
2022/01/16 05:17:45;;;;;;;;;;;19.00;35.70;;;;;;5106296;27;20008;-44
2022/01/16 05:20:12;;;;;;;;;;;19.00;35.70;;;;;;5112016;27;20403;-44
2022/01/16 05:22:41;;;;;;;;;;;19.00;35.60;;;;;;5110763;27;20010;-44
2022/01/16 05:25:08;;;;;;;;;;;19.00;35.60;;;;;;5094580;27;19984;-48
2022/01/16 05:27:38;;;;;;;;;;;18.90;36.10;;;;;;5111230;27;19965;-45
2022/01/16 05:30:06;;;;;;;;;;;18.90;35.50;;;;;;5107492;27;20376;-47
2022/01/16 05:32:33;;;;;;;;;;;18.90;35.50;;;;;;5093709;27;19934;-44
2022/01/16 05:34:59;;;;;;;;;;;18.90;35.40;;;;;;5103954;27;19971;-45
2022/01/16 05:37:26;;;;;;;;;;;18.90;35.40;;;;;;5130132;27;19947;-51
2022/01/16 05:39:54;;;;;;;;;;;18.90;35.30;;;;;;5129848;27;19924;-44
2022/01/16 05:42:21;;;;;;;;;;;18.90;35.30;;;;;;5110691;27;19919;-45
2022/01/16 05:44:48;;;;;;;;;;;18.90;35.30;;;;;;5107711;27;19991;-45
2022/01/16 05:47:15;;;;;;;;;;;18.90;35.30;;;;;;5111391;27;20043;-44
2022/01/16 05:49:42;;;;;;;;;;;18.90;35.30;;;;;;5129927;27;19963;-50
2022/01/16 05:52:09;;;;;;;;;;;18.90;35.30;;;;;;5111691;27;20398;-45
2022/01/16 05:54:35;;;;;;;;;;;18.80;35.20;;;;;;5105301;27;19945;-45
2022/01/16 05:57:04;;;;;;;;;;;18.80;35.30;;;;;;5111309;27;20022;-45
2022/01/16 05:59:31;;;;;;;;;;;18.80;35.30;;;;;;5111692;27;20026;-44
2022/01/16 06:01:57;;;;;;;;;;;18.80;35.80;;;;;;5101770;27;19955;-46
2022/01/16 06:04:24;;;;;;;;;;;18.80;35.20;;;;;;5109181;27;20769;-46
2022/01/16 06:06:51;;;;;;;;;;;18.80;35.20;;;;;;5099196;27;19928;-46
2022/01/16 06:09:18;;;;;;;;;;;18.80;35.20;;;;;;5128926;27;19923;-44
2022/01/16 06:11:45;;;;;;;;;;;18.80;35.20;;;;;;5111447;27;20411;-45
2022/01/16 06:14:13;;;;;;;;;;;18.80;35.20;;;;;;5110592;27;20593;-45
2022/01/16 06:16:39;;;;;;;;;;;18.80;35.20;;;;;;5129169;27;19927;-46
2022/01/16 06:19:06;;;;;;;;;;;18.80;35.20;;;;;;5109899;27;20386;-45
2022/01/16 06:21:33;;;;;;;;;;;18.80;35.20;;;;;;5109428;27;20403;-45
2022/01/16 06:24:00;;;;;;;;;;;18.80;35.30;;;;;;5145062;27;19923;-46
2022/01/16 06:26:27;;;;;;;;;;;18.80;35.20;;;;;;5110678;27;20018;-45
2022/01/16 06:28:54;;;;;;;;;;;18.80;35.30;;;;;;5102498;28;19934;-44
2022/01/16 06:31:22;;;;;;;;;;;18.80;35.20;;;;;;5107524;27;19931;-49
2022/01/16 06:33:49;;;;;;;;;;;18.80;35.10;;;;;;5129437;27;19932;-46
2022/01/16 06:36:15;;;;;;;;;;;18.80;35.10;;;;;;5107910;28;19939;-44
2022/01/16 06:38:42;;;;;;;;;;;18.80;35.10;;;;;;5123077;27;19931;-44
2022/01/16 06:41:09;;;;;;;;;;;18.80;35.10;;;;;;5109864;27;19931;-49
2022/01/16 06:43:36;;;;;;;;;;;18.80;35.00;;;;;;5110045;27;20595;-49
2022/01/16 06:46:02;;;;;;;;;;;18.80;35.00;;;;;;5126318;27;19980;-45
2022/01/16 06:48:31;;;;;;;;;;;18.80;35.00;;;;;;5142421;27;19976;-47
2022/01/16 06:50:58;;;;;;;;;;;18.70;34.90;;;;;;5108817;27;20012;-45
2022/01/16 06:53:25;;;;;;;;;;;18.70;34.90;;;;;;5112801;27;19933;-46
2022/01/16 06:55:51;;;;;;;;;;;18.70;34.80;;;;;;5109713;27;19924;-49
2022/01/16 06:58:18;;;;;;;;;;;18.70;34.80;;;;;;5106259;28;19974;-46
2022/01/16 07:00:46;;;;;;;;;;;18.70;34.80;;;;;;5117105;27;19924;-46
2022/01/16 07:03:13;;;;;;;;;;;18.70;34.80;;;;;;5109725;28;19927;-46
2022/01/16 07:05:42;;;;;;;;;;;18.70;34.80;;;;;;5127903;27;19972;-51
2022/01/16 07:08:08;;;;;;;;;;;18.70;34.80;;;;;;5105382;28;20022;-47
2022/01/16 07:10:35;;;;;;;;;;;18.70;34.70;;;;;;5108843;28;19930;-48
2022/01/16 07:13:02;;;;;;;;;;;18.70;34.70;;;;;;5104166;28;19954;-49
2022/01/16 07:15:29;;;;;;;;;;;18.70;34.70;;;;;;5128722;28;19931;-49
2022/01/16 07:17:55;;;;;;;;;;;18.70;34.70;;;;;;5128458;28;20022;-52
2022/01/16 07:20:22;;;;;;;;;;;18.70;34.70;;;;;;5126474;28;19927;-50
2022/01/16 07:22:50;;;;;;;;;;;18.70;34.70;;;;;;5128873;28;19932;-47
2022/01/16 07:25:17;;;;;;;;;;;18.60;34.60;;;;;;5110312;28;20406;-50
2022/01/16 07:27:44;;;;;;;;;;;18.70;34.70;;;;;;5129173;28;19924;-46
2022/01/16 07:30:11;;;;;;;;;;;18.70;34.70;;;;;;5126761;28;20017;-51
2022/01/16 07:32:39;;;;;;;;;;;18.60;34.60;;;;;;5109418;28;19927;-47
2022/01/16 07:35:06;;;;;;;;;;;18.60;34.60;;;;;;5108973;28;19988;-46
2022/01/16 07:37:33;;;;;;;;;;;18.70;34.80;;;;;;5127233;28;19924;-45
2022/01/16 07:40:01;;;;;;;;;;;18.60;34.60;;;;;;5109498;28;20391;-44
2022/01/16 07:42:28;;;;;;;;;;;18.60;34.60;;;;;;5127579;28;19974;-48
2022/01/16 07:44:54;;;;;;;;;;;18.70;34.70;;;;;;5128430;28;19923;-48
2022/01/16 07:47:21;;;;;;;;;;;18.60;34.60;;;;;;5124861;28;19946;-50
2022/01/16 07:49:48;;;;;;;;;;;18.60;34.50;;;;;;5111478;27;19930;-46
2022/01/16 07:52:15;;;;;;;;;;;18.60;34.50;;;;;;5113318;27;20417;-49
2022/01/16 07:54:41;;;;;;;;;;;18.60;34.50;;;;;;5112887;27;19923;-46
2022/01/16 07:57:09;;;;;;;;;;;18.60;34.50;;;;;;5110295;27;19934;-45
2022/01/16 07:59:36;;;;;;;;;;;18.60;34.50;;;;;;5108721;27;19976;-48
2022/01/16 08:02:03;;;;;;;;;;;18.60;34.60;;;;;;5127704;27;20353;-49
2022/01/16 08:04:30;;;;;;;;;;;18.60;34.70;;;;;;5127984;27;20011;-48
2022/01/16 08:06:57;;;;;;;;;;;18.60;34.80;;;;;;5129569;27;19967;-44
2022/01/16 08:09:23;;;;;;;;;;;18.60;34.90;;;;;;5110920;27;19972;-48
2022/01/16 08:11:50;;;;;;;;;;;18.60;35.00;;;;;;5110315;27;19927;-47
2022/01/16 08:14:19;;;;;;;;;;;18.60;35.20;;;;;;5109124;27;19920;-53
2022/01/16 08:16:45;;;;;;;;;;;18.70;35.30;;;;;;5110168;27;19958;-46
2022/01/16 08:19:12;;;;;;;;;;;18.60;35.30;;;;;;5128591;27;19923;-49
2022/01/16 08:21:39;;;;;;;;;;;18.70;35.40;;;;;;5111737;27;20000;-47
2022/01/16 08:24:07;;;;;;;;;;;18.70;35.40;;;;;;5111592;27;20055;-51
2022/01/16 08:26:33;;;;;;;;;;;18.70;35.70;;;;;;5110598;27;20524;-48
2022/01/16 08:29:00;;;;;;;;;;;18.70;35.60;;;;;;5107951;27;19962;-46
2022/01/16 08:31:28;;;;;;;;;;;18.70;35.60;;;;;;5110635;27;20406;-47
2022/01/16 08:33:55;;;;;;;;;;;18.70;35.70;;;;;;5108394;27;19930;-45
2022/01/16 08:36:22;;;;;;;;;;;18.80;35.80;;;;;;5127567;27;19962;-47
2022/01/16 08:38:48;;;;;;;;;;;18.80;35.80;;;;;;5107468;27;19974;-50
2022/01/16 08:41:15;;;;;;;;;;;18.80;35.90;;;;;;5129527;27;19923;-49
2022/01/16 08:43:42;;;;;;;;;;;18.80;35.90;;;;;;5129613;27;19930;-48
2022/01/16 08:46:09;;;;;;;;;;;18.80;36.00;;;;;;5109316;27;20356;-50
2022/01/16 08:48:37;;;;;;;;;;;18.90;36.10;;;;;;5110572;27;20364;-48
2022/01/16 08:51:04;;;;;;;;;;;18.80;36.00;;;;;;5110221;27;20003;-51
2022/01/16 08:53:31;;;;;;;;;;;18.80;36.10;;;;;;5110181;27;20334;-49
2022/01/16 08:55:58;;;;;;;;;;;18.90;36.20;;;;;;5128139;27;20034;-47
2022/01/16 08:58:24;;;;;;;;;;;18.90;36.30;;;;;;5110008;27;19936;-47
2022/01/16 09:00:51;;;;;;;;;;;18.90;36.30;;;;;;5105814;27;19937;-44
2022/01/16 09:03:18;;;;;;;;;;;18.90;36.30;;;;;;5111763;27;20014;-45
2022/01/16 09:05:47;;;;;;;;;;;18.90;36.30;;;;;;5109605;27;20592;-47
2022/01/16 09:08:14;;;;;;;;;;;18.90;36.30;;;;;;5108031;27;19975;-45
2022/01/16 09:10:41;;;;;;;;;;;18.90;36.40;;;;;;5125608;27;19963;-47
2022/01/16 09:13:11;;;;;;;;;;;18.90;36.40;;;;;;5093667;27;19923;-44
2022/01/16 09:15:38;;;;;;;;;;;18.90;36.40;;;;;;5106158;27;19938;-46
2022/01/16 09:18:05;;;;;;;;;;;18.90;36.40;;;;;;5106170;27;19923;-48
2022/01/16 09:20:31;;;;;;;;;;;18.90;36.50;;;;;;5128781;27;19923;-46
2022/01/16 09:22:59;;;;;;;;;;;19.00;36.60;;;;;;5110658;27;20369;-45
2022/01/16 09:25:26;;;;;;;;;;;19.00;36.60;;;;;;5142816;27;19924;-46
2022/01/16 09:27:53;;;;;;;;;;;19.00;36.60;;;;;;5127208;27;20376;-45
2022/01/16 09:30:20;;;;;;;;;;;19.00;36.60;;;;;;5141079;27;19928;-52
2022/01/16 09:32:47;;;;;;;;;;;19.00;36.70;;;;;;5127830;27;19938;-47
2022/01/16 09:35:14;;;;;;;;;;;19.00;36.70;;;;;;5110897;27;20380;-44
2022/01/16 09:37:41;;;;;;;;;;;19.00;36.70;;;;;;5129464;27;20026;-48
2022/01/16 09:40:11;;;;;;;;;;;19.00;36.70;;;;;;5108026;27;20023;-47
2022/01/16 09:42:37;;;;;;;;;;;19.00;36.70;;;;;;5130021;27;20568;-53
2022/01/16 09:45:05;;;;;;;;;;;19.00;36.70;;;;;;5106770;27;19919;-47
2022/01/16 09:47:31;;;;;;;;;;;19.00;36.70;;;;;;5137688;27;19947;-48
2022/01/16 09:49:58;;;;;;;;;;;19.10;36.80;;;;;;5136261;27;19923;-47
2022/01/16 09:52:25;;;;;;;;;;;19.10;36.90;;;;;;5109819;27;19928;-47
2022/01/16 09:54:52;;;;;;;;;;;19.10;36.90;;;;;;5119542;27;19934;-44
2022/01/16 09:57:20;;;;;;;;;;;19.10;36.90;;;;;;5109687;27;19980;-51
2022/01/16 09:59:47;;;;;;;;;;;19.10;36.90;;;;;;5128463;27;19949;-48
2022/01/16 10:02:13;;;;;;;;;;;19.10;36.90;;;;;;5137769;27;19930;-47
2022/01/16 10:04:41;;;;;;;;;;;19.10;37.50;;;;;;5108591;27;19923;-47
2022/01/16 10:07:08;;;;;;;;;;;19.10;36.80;;;;;;5143407;27;19953;-48
2022/01/16 10:09:35;;;;;;;;;;;19.10;36.80;;;;;;5104719;27;20034;-49
2022/01/16 10:12:04;;;;;;;;;;;19.10;36.80;;;;;;5101259;27;19924;-50
2022/01/16 10:14:35;;;;;;;;;;;19.10;36.80;;;;;;5113443;27;19927;-49
2022/01/16 10:17:09;;;;;;;;;;;19.10;36.70;;;;;;5141886;27;19924;-47
2022/01/16 10:19:36;;;;;;;;;;;19.10;36.70;;;;;;5110651;27;20014;-44
2022/01/16 10:22:03;;;;;;;;;;;19.10;36.70;;;;;;5117116;27;19927;-48
2022/01/16 10:24:31;;;;;;;;;;;19.10;36.70;;;;;;5124014;27;19931;-45
2022/01/16 10:27:14;;;;;;;;;;;19.10;36.70;;;;;;5100975;28;19962;-48
2022/01/16 10:29:43;;;;;;;;;;;19.10;36.60;;;;;;5097808;27;19972;-47
2022/01/16 10:32:14;;;;;;;;;;;19.10;36.60;;;;;;5108230;27;20472;-49
2022/01/16 10:34:41;;;;;;;;;;;19.10;36.60;;;;;;5098448;28;20302;-45
2022/01/16 10:37:18;;;;;;;;;;;19.10;36.60;;;;;;5108605;27;19974;-44
2022/01/16 10:39:51;;;;;;;;;;;19.10;36.70;;;;;;5108981;27;19924;-46
2022/01/16 10:42:18;;;;;;;;;;;19.10;36.70;;;;;;5144213;27;19966;-49
2022/01/16 10:44:46;;;;;;;;;;;19.10;36.70;;;;;;5110855;27;20299;-48
2022/01/16 10:47:23;;;;;;;;;;;19.20;36.90;;;;;;5134363;27;19934;-54
2022/01/16 10:49:58;;;;;;;;;;;19.20;36.90;;;;;;5113564;27;19948;-54
2022/01/16 10:52:25;;;;;;;;;;;19.20;36.90;;;;;;5103792;27;19950;-56
2022/01/16 10:54:52;;;;;;;;;;;19.20;36.90;;;;;;5109046;27;19977;-55
2022/01/16 10:57:19;;;;;;;;;;;19.20;36.80;;;;;;5140708;27;19927;-55
2022/01/16 10:59:48;;;;;;;;;;;19.20;36.70;;;;;;5119126;27;19923;-55
2022/01/16 11:02:15;;;;;;;;;;;19.20;36.70;;;;;;5117413;27;19928;-60
2022/01/16 11:04:42;;;;;;;;;;;19.20;36.70;;;;;;5117645;27;19963;-53
2022/01/16 11:07:10;;;;;;;;;;;19.20;36.70;;;;;;5125436;27;19927;-53
2022/01/16 11:09:37;;;;;;;;;;;19.10;36.60;;;;;;5116857;28;19927;-56
2022/01/16 11:12:04;;;;;;;;;;;19.10;36.60;;;;;;5118551;28;19923;-54
2022/01/16 11:14:31;;;;;;;;;;;19.10;36.60;;;;;;5117625;28;20245;-56
2022/01/16 11:16:59;;;;;;;;;;;19.10;36.60;;;;;;5150184;27;20326;-58
2022/01/16 11:19:29;;;;;;;;;;;19.10;36.60;;;;;;5145071;27;19924;-55
2022/01/16 11:22:03;;;;;;;;;;;19.10;36.60;;;;;;5116095;28;19996;-55
2022/01/16 11:24:46;;;;;;;;;;;19.10;36.60;;;;;;5122091;27;19934;-52
2022/01/16 11:27:15;;;;;;;;;;;19.10;36.60;;;;;;5123443;27;19923;-58
2022/01/16 11:29:41;;;;;;;;;;;19.10;36.60;;;;;;5124584;27;19955;-53
2022/01/16 11:32:10;;;;;;;;;;;19.10;36.60;;;;;;5136473;27;19935;-56
2022/01/16 11:34:37;;;;;;;;;;;19.10;36.60;;;;;;5126321;27;19928;-55
2022/01/16 11:37:04;;;;;;;;;;;19.10;36.70;;;;;;5138310;27;19939;-58
2022/01/16 11:39:33;;;;;;;;;;;19.10;36.70;;;;;;5152384;27;19951;-57
2022/01/16 11:42:02;;;;;;;;;;;19.10;36.70;;;;;;5122126;27;20265;-56
2022/01/16 11:44:29;;;;;;;;;;;19.10;36.70;;;;;;5124187;27;20018;-57
2022/01/16 11:46:57;;;;;;;;;;;19.10;36.70;;;;;;5119301;27;19988;-58
2022/01/16 11:49:38;;;;;;;;;;;19.10;37.40;;;;;;5123581;27;19948;-57
2022/01/16 11:52:09;;;;;;;;;;;19.10;36.80;;;;;;5122881;27;19956;-59
2022/01/16 11:54:36;;;;;;;;;;;19.10;36.80;;;;;;5155582;27;19931;-52
2022/01/16 11:57:21;;;;;;;;;;;19.10;36.80;;;;;;5121647;27;19992;-52
2022/01/16 11:59:48;;;;;;;;;;;19.20;36.90;;;;;;5122365;27;19954;-56
2022/01/16 12:02:33;;;;;;;;;;;19.10;36.80;;;;;;5126299;27;19930;-51
2022/01/16 12:05:02;;;;;;;;;;;19.10;36.80;;;;;;5123432;27;19923;-55
2022/01/16 12:07:45;;;;;;;;;;;19.10;36.80;;;;;;5132672;27;19965;-54
2022/01/16 12:10:12;;;;;;;;;;;19.10;36.90;;;;;;5123618;27;19931;-58
2022/01/16 12:12:39;;;;;;;;;;;19.10;36.90;;;;;;5129307;27;19923;-56
2022/01/16 12:15:06;;;;;;;;;;;19.10;36.90;;;;;;5125154;27;20048;-56
2022/01/16 12:17:34;;;;;;;;;;;19.10;36.90;;;;;;5130256;27;19927;-51
2022/01/16 12:20:22;;;;;;;;;;;19.10;36.90;;;;;;5124197;27;19973;-55
2022/01/16 12:22:52;;;;;;;;;;;19.10;36.90;;;;;;5118679;27;20010;-52
2022/01/16 12:25:19;;;;;;;;;;;19.10;36.90;;;;;;5122181;27;19936;-58
2022/01/16 12:27:46;;;;;;;;;;;19.10;36.90;;;;;;5141681;27;19935;-51
2022/01/16 12:30:15;;;;;;;;;;;19.10;36.90;;;;;;5120985;27;19940;-50
2022/01/16 12:32:58;;;;;;;;;;;19.10;37.00;;;;;;5152933;27;19955;-55
2022/01/16 12:35:45;;;;;;;;;;;19.10;37.00;;;;;;5117458;27;19995;-55
2022/01/16 12:38:14;;;;;;;;;;;19.10;37.00;;;;;;5124060;27;19931;-58
2022/01/16 12:40:43;;;;;;;;;;;19.10;37.00;;;;;;5121408;27;20003;-55
2022/01/16 12:43:13;;;;;;;;;;;19.10;37.00;;;;;;5122361;27;19953;-55
2022/01/16 12:45:40;;;;;;;;;;;19.10;37.00;;;;;;5116355;27;19978;-50
2022/01/16 12:48:07;;;;;;;;;;;19.10;37.00;;;;;;5141827;27;19946;-59
2022/01/16 12:50:34;;;;;;;;;;;19.10;37.10;;;;;;5124130;27;19933;-54
2022/01/16 12:53:01;;;;;;;;;;;19.10;37.10;;;;;;5122836;27;20373;-54
2022/01/16 12:55:31;;;;;;;;;;;19.10;37.10;;;;;;5123586;27;19927;-56
2022/01/16 12:58:13;;;;;;;;;;;19.10;37.10;;;;;;5123263;27;20286;-55
2022/01/16 13:00:55;;;;;;;;;;;19.10;37.10;;;;;;5115756;27;19950;-53
2022/01/16 13:03:24;;;;;;;;;;;19.10;37.10;;;;;;5138166;27;19934;-57
2022/01/16 13:05:54;;;;;;;;;;;19.10;37.10;;;;;;5103395;27;19935;-58
2022/01/16 13:08:22;;;;;;;;;;;19.10;37.10;;;;;;5103691;28;19983;-56
2022/01/16 13:10:50;;;;;;;;;;;19.10;37.10;;;;;;5117193;27;20325;-57
2022/01/16 13:13:17;;;;;;;;;;;19.10;37.10;;;;;;5151683;27;19927;-53
2022/01/16 13:15:44;;;;;;;;;;;19.00;37.60;;;;;;5139695;27;20661;-58
2022/01/16 13:18:12;;;;;;;;;;;19.00;37.10;;;;;;5112928;27;19970;-52
2022/01/16 13:20:39;;;;;;;;;;;19.00;37.10;;;;;;5120411;27;19968;-47
2022/01/16 13:23:05;;;;;;;;;;;19.00;37.10;;;;;;5117974;28;19992;-54
2022/01/16 13:25:32;;;;;;;;;;;19.00;37.10;;;;;;5115533;27;19931;-57
2022/01/16 13:28:00;;;;;;;;;;;19.00;37.10;;;;;;5122160;27;19927;-58
2022/01/16 13:30:29;;;;;;;;;;;19.00;37.10;;;;;;5110399;27;19992;-50
2022/01/16 13:33:02;;;;;;;;;;;19.00;37.20;;;;;;5150992;27;19946;-54
2022/01/16 13:35:30;;;;;;;;;;;19.00;37.20;;;;;;5145418;27;19919;-56
2022/01/16 13:38:02;;;;;;;;;;;19.00;37.20;;;;;;5121403;27;19958;-53
2022/01/16 13:40:30;;;;;;;;;;;19.00;37.20;;;;;;5128620;27;19935;-52
2022/01/16 13:43:06;;;;;;;;;;;19.00;37.30;;;;;;5125842;27;19960;-55
2022/01/16 13:45:38;;;;;;;;;;;19.00;37.30;;;;;;5118249;27;19935;-53
2022/01/16 13:48:06;;;;;;;;;;;19.00;37.30;;;;;;5116342;27;19953;-58
2022/01/16 13:50:34;;;;;;;;;;;19.00;37.30;;;;;;5114748;27;19936;-55
2022/01/16 13:53:02;;;;;;;;;;;19.00;37.40;;;;;;5112673;27;19935;-52
2022/01/16 13:55:29;;;;;;;;;;;19.00;37.30;;;;;;5117761;27;19966;-52
2022/01/16 13:57:56;;;;;;;;;;;19.00;37.40;;;;;;5141883;27;19924;-53
2022/01/16 14:00:28;;;;;;;;;;;19.00;37.40;;;;;;5114399;27;19985;-57
2022/01/16 14:03:10;;;;;;;;;;;19.00;37.40;;;;;;5116052;27;19936;-56
2022/01/16 14:05:40;;;;;;;;;;;19.00;37.40;;;;;;5122885;27;19930;-55
2022/01/16 14:08:14;;;;;;;;;;;19.00;37.40;;;;;;5129592;27;19937;-53
2022/01/16 14:10:41;;;;;;;;;;;19.00;37.40;;;;;;5123963;27;19930;-49
2022/01/16 14:13:10;;;;;;;;;;;19.00;37.40;;;;;;5113784;27;20128;-54
2022/01/16 14:15:37;;;;;;;;;;;19.00;37.40;;;;;;5114960;27;19930;-58
2022/01/16 14:18:08;;;;;;;;;;;19.00;37.50;;;;;;5121157;27;19936;-57
2022/01/16 14:20:48;;;;;;;;;;;19.00;37.50;;;;;;5116675;27;19980;-52
2022/01/16 14:23:15;;;;;;;;;;;19.00;37.50;;;;;;5116938;27;19991;-54
2022/01/16 14:25:42;;;;;;;;;;;18.90;37.50;;;;;;5112365;27;19951;-54
2022/01/16 14:28:09;;;;;;;;;;;19.00;37.50;;;;;;5121250;27;19923;-53
2022/01/16 14:30:36;;;;;;;;;;;18.90;37.50;;;;;;5122113;27;19923;-53
2022/01/16 14:33:03;;;;;;;;;;;18.90;37.50;;;;;;5116988;27;19938;-56
2022/01/16 14:35:30;;;;;;;;;;;18.90;37.50;;;;;;5122858;27;19932;-57
2022/01/16 14:37:58;;;;;;;;;;;18.90;37.50;;;;;;5121562;27;20037;-55
2022/01/16 14:40:24;;;;;;;;;;;18.90;37.60;;;;;;5118723;27;19927;-54
2022/01/16 14:42:59;;;;;;;;;;;18.90;37.60;;;;;;5117420;27;19935;-47
2022/01/16 14:45:26;;;;;;;;;;;18.90;37.60;;;;;;5108361;27;19924;-46
2022/01/16 14:47:53;;;;;;;;;;;18.90;37.60;;;;;;5111082;27;19969;-49
2022/01/16 14:50:20;;;;;;;;;;;18.90;37.80;;;;;;5091022;28;20023;-45
2022/01/16 14:52:48;;;;;;;;;;;19.00;38.00;;;;;;5109202;27;20044;-45
2022/01/16 14:55:17;;;;;;;;;;;19.00;38.10;;;;;;5096673;28;20036;-52
2022/01/16 14:57:44;;;;;;;;;;;19.00;38.20;;;;;;5106649;27;19923;-46